sensor_id;sensor_type;location;lat;lon;timestamp;P1;durP1;ratioP1;P2;durP2;ratioP2
55288;SDS011;41154;45.394;5.734;2023-09-12T00:00:53;11.25;;;6.15;;
55288;SDS011;41154;45.394;5.734;2023-09-12T00:03:20;11.43;;;6.15;;
55288;SDS011;41154;45.394;5.734;2023-09-12T00:05:53;12.18;;;6.50;;
55288;SDS011;41154;45.394;5.734;2023-09-12T00:08:19;7.18;;;5.93;;
55288;SDS011;41154;45.394;5.734;2023-09-12T00:10:45;9.80;;;6.55;;
55288;SDS011;41154;45.394;5.734;2023-09-12T00:13:11;8.45;;;5.97;;
55288;SDS011;41154;45.394;5.734;2023-09-12T00:15:37;7.75;;;5.80;;
55288;SDS011;41154;45.394;5.734;2023-09-12T00:18:03;7.00;;;6.07;;
55288;SDS011;41154;45.394;5.734;2023-09-12T00:20:29;11.05;;;5.95;;
55288;SDS011;41154;45.394;5.734;2023-09-12T00:22:55;7.20;;;6.07;;
55288;SDS011;41154;45.394;5.734;2023-09-12T00:25:21;8.23;;;5.72;;
55288;SDS011;41154;45.394;5.734;2023-09-12T00:27:47;9.07;;;5.70;;
55288;SDS011;41154;45.394;5.734;2023-09-12T00:30:15;9.05;;;6.03;;
55288;SDS011;41154;45.394;5.734;2023-09-12T00:32:41;13.60;;;6.88;;
55288;SDS011;41154;45.394;5.734;2023-09-12T00:35:07;8.15;;;6.35;;
55288;SDS011;41154;45.394;5.734;2023-09-12T00:37:33;8.70;;;5.50;;
55288;SDS011;41154;45.394;5.734;2023-09-12T00:39:59;8.65;;;6.38;;
55288;SDS011;41154;45.394;5.734;2023-09-12T00:42:40;7.80;;;5.68;;
55288;SDS011;41154;45.394;5.734;2023-09-12T00:45:06;8.60;;;6.65;;
55288;SDS011;41154;45.394;5.734;2023-09-12T00:47:32;8.75;;;6.50;;
55288;SDS011;41154;45.394;5.734;2023-09-12T00:49:58;9.60;;;6.68;;
55288;SDS011;41154;45.394;5.734;2023-09-12T00:52:26;9.85;;;6.47;;
55288;SDS011;41154;45.394;5.734;2023-09-12T00:54:53;9.48;;;6.93;;
55288;SDS011;41154;45.394;5.734;2023-09-12T00:57:20;10.25;;;6.35;;
55288;SDS011;41154;45.394;5.734;2023-09-12T00:59:47;13.07;;;6.93;;
55288;SDS011;41154;45.394;5.734;2023-09-12T01:02:15;7.82;;;6.40;;
55288;SDS011;41154;45.394;5.734;2023-09-12T01:04:41;8.73;;;6.40;;
55288;SDS011;41154;45.394;5.734;2023-09-12T01:07:07;9.73;;;7.60;;
55288;SDS011;41154;45.394;5.734;2023-09-12T01:09:33;7.72;;;6.07;;
55288;SDS011;41154;45.394;5.734;2023-09-12T01:12:02;7.93;;;5.88;;
55288;SDS011;41154;45.394;5.734;2023-09-12T01:14:28;8.27;;;6.13;;
55288;SDS011;41154;45.394;5.734;2023-09-12T01:16:55;13.23;;;6.57;;
55288;SDS011;41154;45.394;5.734;2023-09-12T01:19:21;7.00;;;5.82;;
55288;SDS011;41154;45.394;5.734;2023-09-12T01:21:58;9.43;;;5.80;;
55288;SDS011;41154;45.394;5.734;2023-09-12T01:27:44;7.50;;;6.40;;
55288;SDS011;41154;45.394;5.734;2023-09-12T01:30:12;7.18;;;5.90;;
55288;SDS011;41154;45.394;5.734;2023-09-12T01:32:40;11.85;;;6.50;;
55288;SDS011;41154;45.394;5.734;2023-09-12T01:35:07;7.75;;;6.22;;
55288;SDS011;41154;45.394;5.734;2023-09-12T01:37:33;10.27;;;6.38;;
55288;SDS011;41154;45.394;5.734;2023-09-12T01:39:59;10.73;;;6.72;;
55288;SDS011;41154;45.394;5.734;2023-09-12T01:42:27;9.55;;;6.85;;
55288;SDS011;41154;45.394;5.734;2023-09-12T01:45:00;11.27;;;6.85;;
55288;SDS011;41154;45.394;5.734;2023-09-12T01:47:28;10.52;;;6.40;;
55288;SDS011;41154;45.394;5.734;2023-09-12T01:49:56;8.90;;;6.25;;
55288;SDS011;41154;45.394;5.734;2023-09-12T01:52:26;9.55;;;6.45;;
55288;SDS011;41154;45.394;5.734;2023-09-12T01:54:53;10.25;;;6.70;;
55288;SDS011;41154;45.394;5.734;2023-09-12T01:57:20;9.43;;;6.40;;
55288;SDS011;41154;45.394;5.734;2023-09-12T01:59:47;7.57;;;5.80;;
55288;SDS011;41154;45.394;5.734;2023-09-12T02:02:17;9.40;;;6.40;;
55288;SDS011;41154;45.394;5.734;2023-09-12T02:04:51;9.32;;;6.50;;
55288;SDS011;41154;45.394;5.734;2023-09-12T02:07:42;7.07;;;5.45;;
55288;SDS011;41154;45.394;5.734;2023-09-12T02:10:08;10.15;;;6.13;;
55288;SDS011;41154;45.394;5.734;2023-09-12T02:12:35;13.63;;;6.55;;
55288;SDS011;41154;45.394;5.734;2023-09-12T02:15:01;7.40;;;6.10;;
55288;SDS011;41154;45.394;5.734;2023-09-12T02:17:27;8.10;;;6.25;;
55288;SDS011;41154;45.394;5.734;2023-09-12T02:19:52;7.95;;;6.55;;
55288;SDS011;41154;45.394;5.734;2023-09-12T02:22:18;8.32;;;6.82;;
55288;SDS011;41154;45.394;5.734;2023-09-12T02:24:44;10.73;;;6.50;;
55288;SDS011;41154;45.394;5.734;2023-09-12T02:27:10;8.13;;;6.43;;
55288;SDS011;41154;45.394;5.734;2023-09-12T02:29:38;8.63;;;6.45;;
55288;SDS011;41154;45.394;5.734;2023-09-12T02:32:05;9.10;;;6.68;;
55288;SDS011;41154;45.394;5.734;2023-09-12T02:34:30;8.55;;;6.28;;
55288;SDS011;41154;45.394;5.734;2023-09-12T02:36:57;9.15;;;6.40;;
55288;SDS011;41154;45.394;5.734;2023-09-12T02:39:23;8.50;;;6.72;;
55288;SDS011;41154;45.394;5.734;2023-09-12T02:41:49;8.40;;;5.65;;
55288;SDS011;41154;45.394;5.734;2023-09-12T02:44:14;12.48;;;7.05;;
55288;SDS011;41154;45.394;5.734;2023-09-12T02:46:40;11.10;;;7.07;;
55288;SDS011;41154;45.394;5.734;2023-09-12T02:49:06;10.73;;;7.07;;
55288;SDS011;41154;45.394;5.734;2023-09-12T02:51:32;7.88;;;6.28;;
55288;SDS011;41154;45.394;5.734;2023-09-12T02:53:57;10.00;;;6.57;;
55288;SDS011;41154;45.394;5.734;2023-09-12T02:56:23;11.50;;;6.85;;
55288;SDS011;41154;45.394;5.734;2023-09-12T02:58:49;8.63;;;6.70;;
55288;SDS011;41154;45.394;5.734;2023-09-12T03:01:16;9.00;;;6.70;;
55288;SDS011;41154;45.394;5.734;2023-09-12T03:03:42;10.73;;;6.53;;
55288;SDS011;41154;45.394;5.734;2023-09-12T03:06:13;9.75;;;6.32;;
55288;SDS011;41154;45.394;5.734;2023-09-12T03:08:40;7.85;;;6.38;;
55288;SDS011;41154;45.394;5.734;2023-09-12T03:11:07;8.77;;;6.85;;
55288;SDS011;41154;45.394;5.734;2023-09-12T03:13:34;8.98;;;6.05;;
55288;SDS011;41154;45.394;5.734;2023-09-12T03:16:00;8.30;;;6.40;;
55288;SDS011;41154;45.394;5.734;2023-09-12T03:18:26;9.52;;;6.50;;
55288;SDS011;41154;45.394;5.734;2023-09-12T03:20:53;13.05;;;6.72;;
55288;SDS011;41154;45.394;5.734;2023-09-12T03:23:19;8.80;;;6.20;;
55288;SDS011;41154;45.394;5.734;2023-09-12T03:25:45;11.25;;;6.60;;
55288;SDS011;41154;45.394;5.734;2023-09-12T03:28:13;9.18;;;7.00;;
55288;SDS011;41154;45.394;5.734;2023-09-12T03:30:38;8.95;;;6.95;;
55288;SDS011;41154;45.394;5.734;2023-09-12T03:33:05;7.57;;;6.38;;
55288;SDS011;41154;45.394;5.734;2023-09-12T03:35:32;11.98;;;7.13;;
55288;SDS011;41154;45.394;5.734;2023-09-12T03:37:58;8.40;;;6.32;;
55288;SDS011;41154;45.394;5.734;2023-09-12T03:40:24;7.57;;;6.25;;
55288;SDS011;41154;45.394;5.734;2023-09-12T03:42:50;9.55;;;6.43;;
55288;SDS011;41154;45.394;5.734;2023-09-12T03:45:16;7.95;;;6.35;;
55288;SDS011;41154;45.394;5.734;2023-09-12T03:47:42;8.27;;;6.57;;
55288;SDS011;41154;45.394;5.734;2023-09-12T03:50:12;10.93;;;6.28;;
55288;SDS011;41154;45.394;5.734;2023-09-12T03:52:39;8.13;;;6.45;;
55288;SDS011;41154;45.394;5.734;2023-09-12T03:55:05;9.77;;;6.82;;
55288;SDS011;41154;45.394;5.734;2023-09-12T03:57:31;8.38;;;6.32;;
55288;SDS011;41154;45.394;5.734;2023-09-12T03:59:57;11.95;;;7.00;;
55288;SDS011;41154;45.394;5.734;2023-09-12T04:02:23;12.10;;;6.93;;
55288;SDS011;41154;45.394;5.734;2023-09-12T04:04:49;8.93;;;6.63;;
55288;SDS011;41154;45.394;5.734;2023-09-12T04:07:17;9.80;;;6.93;;
55288;SDS011;41154;45.394;5.734;2023-09-12T04:09:43;9.60;;;5.95;;
55288;SDS011;41154;45.394;5.734;2023-09-12T04:12:08;8.63;;;6.38;;
55288;SDS011;41154;45.394;5.734;2023-09-12T04:14:35;8.00;;;6.35;;
55288;SDS011;41154;45.394;5.734;2023-09-12T04:17:01;8.50;;;6.38;;
55288;SDS011;41154;45.394;5.734;2023-09-12T04:19:27;9.15;;;6.88;;
55288;SDS011;41154;45.394;5.734;2023-09-12T04:21:53;9.75;;;6.20;;
55288;SDS011;41154;45.394;5.734;2023-09-12T04:24:18;11.80;;;7.10;;
55288;SDS011;41154;45.394;5.734;2023-09-12T04:26:44;9.10;;;6.80;;
55288;SDS011;41154;45.394;5.734;2023-09-12T04:29:10;11.93;;;7.47;;
55288;SDS011;41154;45.394;5.734;2023-09-12T04:31:36;8.60;;;6.90;;
55288;SDS011;41154;45.394;5.734;2023-09-12T04:34:02;9.57;;;6.82;;
55288;SDS011;41154;45.394;5.734;2023-09-12T04:36:27;8.77;;;7.13;;
55288;SDS011;41154;45.394;5.734;2023-09-12T04:38:53;9.93;;;6.45;;
55288;SDS011;41154;45.394;5.734;2023-09-12T04:41:19;10.35;;;7.05;;
55288;SDS011;41154;45.394;5.734;2023-09-12T04:43:45;9.85;;;7.00;;
55288;SDS011;41154;45.394;5.734;2023-09-12T04:46:11;9.55;;;6.80;;
55288;SDS011;41154;45.394;5.734;2023-09-12T04:48:37;11.13;;;6.63;;
55288;SDS011;41154;45.394;5.734;2023-09-12T04:51:04;10.00;;;6.60;;
55288;SDS011;41154;45.394;5.734;2023-09-12T04:53:30;11.45;;;6.55;;
55288;SDS011;41154;45.394;5.734;2023-09-12T04:56:01;10.55;;;7.10;;
55288;SDS011;41154;45.394;5.734;2023-09-12T04:58:29;9.35;;;6.38;;
55288;SDS011;41154;45.394;5.734;2023-09-12T05:00:55;11.90;;;7.00;;
55288;SDS011;41154;45.394;5.734;2023-09-12T05:03:21;10.77;;;7.22;;
55288;SDS011;41154;45.394;5.734;2023-09-12T05:05:48;10.90;;;6.78;;
55288;SDS011;41154;45.394;5.734;2023-09-12T05:08:16;8.45;;;6.63;;
55288;SDS011;41154;45.394;5.734;2023-09-12T05:10:43;9.55;;;6.88;;
55288;SDS011;41154;45.394;5.734;2023-09-12T05:13:10;10.10;;;6.57;;
55288;SDS011;41154;45.394;5.734;2023-09-12T05:15:37;11.07;;;7.25;;
55288;SDS011;41154;45.394;5.734;2023-09-12T05:18:05;9.63;;;7.13;;
55288;SDS011;41154;45.394;5.734;2023-09-12T05:20:32;10.32;;;7.30;;
55288;SDS011;41154;45.394;5.734;2023-09-12T05:22:58;9.82;;;6.50;;
55288;SDS011;41154;45.394;5.734;2023-09-12T05:25:24;9.48;;;6.65;;
55288;SDS011;41154;45.394;5.734;2023-09-12T05:27:52;9.90;;;7.32;;
55288;SDS011;41154;45.394;5.734;2023-09-12T05:30:25;9.80;;;7.10;;
55288;SDS011;41154;45.394;5.734;2023-09-12T05:32:53;9.68;;;6.47;;
55288;SDS011;41154;45.394;5.734;2023-09-12T05:35:19;10.60;;;6.90;;
55288;SDS011;41154;45.394;5.734;2023-09-12T05:37:45;9.88;;;6.60;;
55288;SDS011;41154;45.394;5.734;2023-09-12T05:40:11;10.23;;;6.72;;
55288;SDS011;41154;45.394;5.734;2023-09-12T05:42:37;8.60;;;6.82;;
55288;SDS011;41154;45.394;5.734;2023-09-12T05:48:13;10.95;;;6.57;;
55288;SDS011;41154;45.394;5.734;2023-09-12T05:50:39;7.93;;;6.40;;
55288;SDS011;41154;45.394;5.734;2023-09-12T05:53:08;9.10;;;6.45;;
55288;SDS011;41154;45.394;5.734;2023-09-12T05:55:34;9.57;;;6.32;;
55288;SDS011;41154;45.394;5.734;2023-09-12T05:58:00;11.38;;;6.93;;
55288;SDS011;41154;45.394;5.734;2023-09-12T06:00:25;9.80;;;6.53;;
55288;SDS011;41154;45.394;5.734;2023-09-12T06:02:51;9.65;;;6.53;;
55288;SDS011;41154;45.394;5.734;2023-09-12T06:05:17;8.98;;;6.97;;
55288;SDS011;41154;45.394;5.734;2023-09-12T06:07:43;8.93;;;6.70;;
55288;SDS011;41154;45.394;5.734;2023-09-12T06:10:09;9.55;;;6.55;;
55288;SDS011;41154;45.394;5.734;2023-09-12T06:12:35;11.65;;;7.03;;
55288;SDS011;41154;45.394;5.734;2023-09-12T06:15:04;9.32;;;6.10;;
55288;SDS011;41154;45.394;5.734;2023-09-12T06:17:30;9.13;;;6.15;;
55288;SDS011;41154;45.394;5.734;2023-09-12T06:19:56;10.32;;;7.20;;
55288;SDS011;41154;45.394;5.734;2023-09-12T06:22:22;8.55;;;6.35;;
55288;SDS011;41154;45.394;5.734;2023-09-12T06:24:49;9.30;;;6.78;;
55288;SDS011;41154;45.394;5.734;2023-09-12T06:30:33;8.93;;;6.25;;
55288;SDS011;41154;45.394;5.734;2023-09-12T06:32:59;11.57;;;6.40;;
55288;SDS011;41154;45.394;5.734;2023-09-12T06:35:25;10.65;;;6.75;;
55288;SDS011;41154;45.394;5.734;2023-09-12T06:37:51;9.73;;;5.47;;
55288;SDS011;41154;45.394;5.734;2023-09-12T06:40:16;10.02;;;6.80;;
55288;SDS011;41154;45.394;5.734;2023-09-12T06:42:42;15.73;;;6.95;;
55288;SDS011;41154;45.394;5.734;2023-09-12T06:45:08;12.75;;;7.28;;
55288;SDS011;41154;45.394;5.734;2023-09-12T06:47:34;10.50;;;7.47;;
55288;SDS011;41154;45.394;5.734;2023-09-12T06:49:59;11.82;;;6.68;;
55288;SDS011;41154;45.394;5.734;2023-09-12T06:52:27;10.98;;;7.03;;
55288;SDS011;41154;45.394;5.734;2023-09-12T06:54:53;15.50;;;7.40;;
55288;SDS011;41154;45.394;5.734;2023-09-12T06:57:19;12.80;;;6.65;;
55288;SDS011;41154;45.394;5.734;2023-09-12T06:59:44;11.85;;;6.55;;
55288;SDS011;41154;45.394;5.734;2023-09-12T07:02:10;14.02;;;7.38;;
55288;SDS011;41154;45.394;5.734;2023-09-12T07:04:38;12.88;;;6.50;;
55288;SDS011;41154;45.394;5.734;2023-09-12T07:07:03;11.98;;;6.65;;
55288;SDS011;41154;45.394;5.734;2023-09-12T07:09:30;9.07;;;6.80;;
55288;SDS011;41154;45.394;5.734;2023-09-12T07:11:55;18.73;;;6.65;;
55288;SDS011;41154;45.394;5.734;2023-09-12T07:14:21;9.80;;;6.07;;
55288;SDS011;41154;45.394;5.734;2023-09-12T07:16:48;9.25;;;6.63;;
55288;SDS011;41154;45.394;5.734;2023-09-12T07:19:13;9.73;;;5.85;;
55288;SDS011;41154;45.394;5.734;2023-09-12T07:21:39;8.40;;;6.07;;
55288;SDS011;41154;45.394;5.734;2023-09-12T07:24:05;12.50;;;5.40;;
55288;SDS011;41154;45.394;5.734;2023-09-12T07:26:31;11.20;;;5.72;;
55288;SDS011;41154;45.394;5.734;2023-09-12T07:28:57;7.70;;;5.50;;
55288;SDS011;41154;45.394;5.734;2023-09-12T07:31:23;8.55;;;5.18;;
55288;SDS011;41154;45.394;5.734;2023-09-12T07:33:49;9.98;;;5.53;;
55288;SDS011;41154;45.394;5.734;2023-09-12T07:36:14;14.13;;;5.45;;
55288;SDS011;41154;45.394;5.734;2023-09-12T07:38:40;8.40;;;5.50;;
55288;SDS011;41154;45.394;5.734;2023-09-12T07:41:07;7.85;;;4.85;;
55288;SDS011;41154;45.394;5.734;2023-09-12T07:43:33;7.50;;;5.03;;
55288;SDS011;41154;45.394;5.734;2023-09-12T07:45:59;6.00;;;4.40;;
55288;SDS011;41154;45.394;5.734;2023-09-12T07:48:25;7.93;;;4.90;;
55288;SDS011;41154;45.394;5.734;2023-09-12T07:50:51;6.63;;;4.85;;
55288;SDS011;41154;45.394;5.734;2023-09-12T07:53:16;10.60;;;4.47;;
55288;SDS011;41154;45.394;5.734;2023-09-12T07:55:42;9.77;;;4.70;;
55288;SDS011;41154;45.394;5.734;2023-09-12T07:58:15;9.55;;;4.65;;
55288;SDS011;41154;45.394;5.734;2023-09-12T08:00:43;6.88;;;4.25;;
55288;SDS011;41154;45.394;5.734;2023-09-12T08:03:09;5.22;;;4.18;;
55288;SDS011;41154;45.394;5.734;2023-09-12T08:05:35;5.28;;;4.25;;
55288;SDS011;41154;45.394;5.734;2023-09-12T08:08:01;4.50;;;4.07;;
55288;SDS011;41154;45.394;5.734;2023-09-12T08:10:27;4.90;;;4.00;;
55288;SDS011;41154;45.394;5.734;2023-09-12T08:12:53;4.55;;;3.53;;
55288;SDS011;41154;45.394;5.734;2023-09-12T08:15:19;6.25;;;3.58;;
55288;SDS011;41154;45.394;5.734;2023-09-12T08:17:44;5.28;;;4.07;;
55288;SDS011;41154;45.394;5.734;2023-09-12T08:20:10;4.38;;;3.65;;
55288;SDS011;41154;45.394;5.734;2023-09-12T08:22:37;5.25;;;3.60;;
55288;SDS011;41154;45.394;5.734;2023-09-12T08:25:03;6.65;;;3.72;;
55288;SDS011;41154;45.394;5.734;2023-09-12T08:27:29;3.75;;;3.13;;
55288;SDS011;41154;45.394;5.734;2023-09-12T08:29:55;3.85;;;2.92;;
55288;SDS011;41154;45.394;5.734;2023-09-12T08:32:21;3.67;;;2.90;;
55288;SDS011;41154;45.394;5.734;2023-09-12T08:34:47;3.17;;;2.80;;
55288;SDS011;41154;45.394;5.734;2023-09-12T08:37:12;3.72;;;2.60;;
55288;SDS011;41154;45.394;5.734;2023-09-12T08:39:42;3.90;;;3.08;;
55288;SDS011;41154;45.394;5.734;2023-09-12T08:42:13;3.60;;;3.20;;
55288;SDS011;41154;45.394;5.734;2023-09-12T08:44:41;5.50;;;3.17;;
55288;SDS011;41154;45.394;5.734;2023-09-12T08:47:08;3.08;;;2.67;;
55288;SDS011;41154;45.394;5.734;2023-09-12T08:49:37;4.85;;;3.00;;
55288;SDS011;41154;45.394;5.734;2023-09-12T08:52:04;3.47;;;3.00;;
55288;SDS011;41154;45.394;5.734;2023-09-12T08:54:31;5.97;;;2.65;;
55288;SDS011;41154;45.394;5.734;2023-09-12T08:57:03;8.60;;;3.60;;
55288;SDS011;41154;45.394;5.734;2023-09-12T08:59:33;3.42;;;3.03;;
55288;SDS011;41154;45.394;5.734;2023-09-12T09:02:00;3.40;;;2.60;;
55288;SDS011;41154;45.394;5.734;2023-09-12T09:04:29;4.13;;;3.30;;
55288;SDS011;41154;45.394;5.734;2023-09-12T09:06:57;5.18;;;3.15;;
55288;SDS011;41154;45.394;5.734;2023-09-12T09:09:23;6.88;;;2.88;;
55288;SDS011;41154;45.394;5.734;2023-09-12T09:11:50;3.97;;;3.33;;
55288;SDS011;41154;45.394;5.734;2023-09-12T09:14:15;7.40;;;3.35;;
55288;SDS011;41154;45.394;5.734;2023-09-12T09:16:41;7.45;;;4.10;;
55288;SDS011;41154;45.394;5.734;2023-09-12T09:19:07;4.63;;;3.20;;
55288;SDS011;41154;45.394;5.734;2023-09-12T09:21:36;4.95;;;3.40;;
55288;SDS011;41154;45.394;5.734;2023-09-12T09:24:13;6.03;;;3.95;;
55288;SDS011;41154;45.394;5.734;2023-09-12T09:29:21;4.15;;;3.35;;
55288;SDS011;41154;45.394;5.734;2023-09-12T09:34:20;3.85;;;3.03;;
55288;SDS011;41154;45.394;5.734;2023-09-12T09:36:47;4.80;;;3.35;;
55288;SDS011;41154;45.394;5.734;2023-09-12T09:39:15;4.82;;;3.28;;
55288;SDS011;41154;45.394;5.734;2023-09-12T09:41:42;3.15;;;2.78;;
55288;SDS011;41154;45.394;5.734;2023-09-12T09:44:08;3.65;;;2.97;;
55288;SDS011;41154;45.394;5.734;2023-09-12T09:46:37;5.05;;;2.85;;
55288;SDS011;41154;45.394;5.734;2023-09-12T09:49:03;3.65;;;2.78;;
55288;SDS011;41154;45.394;5.734;2023-09-12T09:51:32;4.57;;;2.95;;
55288;SDS011;41154;45.394;5.734;2023-09-12T09:53:58;3.63;;;3.00;;
55288;SDS011;41154;45.394;5.734;2023-09-12T10:00:13;4.25;;;2.97;;
55288;SDS011;41154;45.394;5.734;2023-09-12T10:02:40;4.43;;;2.88;;
55288;SDS011;41154;45.394;5.734;2023-09-12T10:05:06;3.80;;;3.03;;
55288;SDS011;41154;45.394;5.734;2023-09-12T10:07:35;3.25;;;2.70;;
55288;SDS011;41154;45.394;5.734;2023-09-12T10:10:03;3.55;;;2.83;;
55288;SDS011;41154;45.394;5.734;2023-09-12T10:12:36;4.30;;;2.97;;
55288;SDS011;41154;45.394;5.734;2023-09-12T10:15:08;2.88;;;2.58;;
55288;SDS011;41154;45.394;5.734;2023-09-12T10:17:37;3.50;;;2.95;;
55288;SDS011;41154;45.394;5.734;2023-09-12T10:20:13;3.20;;;2.60;;
55288;SDS011;41154;45.394;5.734;2023-09-12T10:22:52;4.05;;;2.95;;
55288;SDS011;41154;45.394;5.734;2023-09-12T10:25:19;4.53;;;2.85;;
55288;SDS011;41154;45.394;5.734;2023-09-12T10:27:45;3.42;;;3.03;;
55288;SDS011;41154;45.394;5.734;2023-09-12T10:30:12;4.18;;;3.10;;
55288;SDS011;41154;45.394;5.734;2023-09-12T10:35:42;4.75;;;3.00;;
55288;SDS011;41154;45.394;5.734;2023-09-12T10:38:10;3.33;;;2.97;;
55288;SDS011;41154;45.394;5.734;2023-09-12T10:40:39;4.72;;;2.80;;
55288;SDS011;41154;45.394;5.734;2023-09-12T10:43:06;3.60;;;2.97;;
55288;SDS011;41154;45.394;5.734;2023-09-12T10:45:35;3.40;;;2.85;;
55288;SDS011;41154;45.394;5.734;2023-09-12T10:48:04;3.40;;;3.10;;
55288;SDS011;41154;45.394;5.734;2023-09-12T10:50:30;5.13;;;3.20;;
55288;SDS011;41154;45.394;5.734;2023-09-12T10:52:56;3.30;;;2.67;;
55288;SDS011;41154;45.394;5.734;2023-09-12T10:55:36;5.18;;;3.22;;
55288;SDS011;41154;45.394;5.734;2023-09-12T10:58:02;4.43;;;3.70;;
55288;SDS011;41154;45.394;5.734;2023-09-12T11:00:29;4.53;;;3.17;;
55288;SDS011;41154;45.394;5.734;2023-09-12T11:02:58;5.60;;;3.15;;
55288;SDS011;41154;45.394;5.734;2023-09-12T11:08:00;3.92;;;3.08;;
55288;SDS011;41154;45.394;5.734;2023-09-12T11:10:27;3.47;;;3.17;;
55288;SDS011;41154;45.394;5.734;2023-09-12T11:12:54;3.70;;;3.08;;
55288;SDS011;41154;45.394;5.734;2023-09-12T11:15:23;5.28;;;3.50;;
55288;SDS011;41154;45.394;5.734;2023-09-12T11:18:00;5.72;;;3.40;;
55288;SDS011;41154;45.394;5.734;2023-09-12T11:20:49;4.82;;;3.38;;
55288;SDS011;41154;45.394;5.734;2023-09-12T11:23:15;5.35;;;3.28;;
55288;SDS011;41154;45.394;5.734;2023-09-12T11:25:40;3.85;;;3.38;;
55288;SDS011;41154;45.394;5.734;2023-09-12T11:28:08;4.00;;;3.30;;
55288;SDS011;41154;45.394;5.734;2023-09-12T11:30:34;4.03;;;3.10;;
55288;SDS011;41154;45.394;5.734;2023-09-12T11:33:03;5.53;;;3.45;;
55288;SDS011;41154;45.394;5.734;2023-09-12T11:35:30;7.47;;;3.67;;
55288;SDS011;41154;45.394;5.734;2023-09-12T11:38:02;5.15;;;3.22;;
55288;SDS011;41154;45.394;5.734;2023-09-12T11:43:00;5.75;;;3.33;;
55288;SDS011;41154;45.394;5.734;2023-09-12T11:45:26;3.25;;;2.95;;
55288;SDS011;41154;45.394;5.734;2023-09-12T11:47:53;3.20;;;2.90;;
55288;SDS011;41154;45.394;5.734;2023-09-12T11:50:53;3.30;;;3.00;;
55288;SDS011;41154;45.394;5.734;2023-09-12T11:53:14;4.32;;;3.03;;
55288;SDS011;41154;45.394;5.734;2023-09-12T11:55:45;6.20;;;3.33;;
55288;SDS011;41154;45.394;5.734;2023-09-12T11:58:13;3.40;;;3.10;;
55288;SDS011;41154;45.394;5.734;2023-09-12T12:00:49;4.00;;;3.60;;
55288;SDS011;41154;45.394;5.734;2023-09-12T12:03:17;3.83;;;3.15;;
55288;SDS011;41154;45.394;5.734;2023-09-12T12:05:44;4.47;;;3.08;;
55288;SDS011;41154;45.394;5.734;2023-09-12T12:08:10;3.50;;;3.15;;
55288;SDS011;41154;45.394;5.734;2023-09-12T12:10:37;4.63;;;3.50;;
55288;SDS011;41154;45.394;5.734;2023-09-12T12:13:12;5.15;;;2.80;;
55288;SDS011;41154;45.394;5.734;2023-09-12T12:15:42;5.43;;;3.47;;
55288;SDS011;41154;45.394;5.734;2023-09-12T12:18:08;5.63;;;3.47;;
55288;SDS011;41154;45.394;5.734;2023-09-12T12:20:33;5.25;;;3.45;;
55288;SDS011;41154;45.394;5.734;2023-09-12T12:22:59;5.72;;;3.75;;
55288;SDS011;41154;45.394;5.734;2023-09-12T12:25:25;3.85;;;3.35;;
55288;SDS011;41154;45.394;5.734;2023-09-12T12:27:51;4.07;;;3.55;;
55288;SDS011;41154;45.394;5.734;2023-09-12T12:30:17;4.88;;;3.63;;
55288;SDS011;41154;45.394;5.734;2023-09-12T12:32:44;3.85;;;3.45;;
55288;SDS011;41154;45.394;5.734;2023-09-12T12:35:18;6.80;;;3.55;;
55288;SDS011;41154;45.394;5.734;2023-09-12T12:37:45;4.50;;;3.20;;
55288;SDS011;41154;45.394;5.734;2023-09-12T12:40:14;6.15;;;3.28;;
55288;SDS011;41154;45.394;5.734;2023-09-12T12:42:40;5.00;;;3.30;;
55288;SDS011;41154;45.394;5.734;2023-09-12T12:45:13;8.38;;;3.67;;
55288;SDS011;41154;45.394;5.734;2023-09-12T12:47:40;5.82;;;3.58;;
55288;SDS011;41154;45.394;5.734;2023-09-12T12:50:12;4.43;;;3.22;;
55288;SDS011;41154;45.394;5.734;2023-09-12T12:52:39;4.45;;;3.40;;
55288;SDS011;41154;45.394;5.734;2023-09-12T12:55:12;4.70;;;3.55;;
55288;SDS011;41154;45.394;5.734;2023-09-12T12:57:39;4.20;;;3.72;;
55288;SDS011;41154;45.394;5.734;2023-09-12T13:00:14;4.28;;;3.47;;
55288;SDS011;41154;45.394;5.734;2023-09-12T13:02:41;4.90;;;3.37;;
55288;SDS011;41154;45.394;5.734;2023-09-12T13:05:21;4.15;;;3.40;;
55288;SDS011;41154;45.394;5.734;2023-09-12T13:07:51;4.40;;;3.80;;
55288;SDS011;41154;45.394;5.734;2023-09-12T13:10:16;6.00;;;3.70;;
55288;SDS011;41154;45.394;5.734;2023-09-12T13:12:43;4.72;;;3.40;;
55288;SDS011;41154;45.394;5.734;2023-09-12T13:15:11;5.45;;;3.13;;
55288;SDS011;41154;45.394;5.734;2023-09-12T13:17:38;7.13;;;3.60;;
55288;SDS011;41154;45.394;5.734;2023-09-12T13:20:04;6.50;;;3.80;;
55288;SDS011;41154;45.394;5.734;2023-09-12T13:22:33;4.45;;;3.53;;
55288;SDS011;41154;45.394;5.734;2023-09-12T13:24:59;6.15;;;3.63;;
55288;SDS011;41154;45.394;5.734;2023-09-12T13:27:25;6.10;;;3.40;;
55288;SDS011;41154;45.394;5.734;2023-09-12T13:29:51;5.45;;;3.50;;
55288;SDS011;41154;45.394;5.734;2023-09-12T13:32:16;3.45;;;3.15;;
55288;SDS011;41154;45.394;5.734;2023-09-12T13:34:44;5.97;;;3.80;;
55288;SDS011;41154;45.394;5.734;2023-09-12T13:37:10;5.22;;;3.90;;
55288;SDS011;41154;45.394;5.734;2023-09-12T13:39:36;6.82;;;3.70;;
55288;SDS011;41154;45.394;5.734;2023-09-12T13:42:02;7.55;;;3.63;;
55288;SDS011;41154;45.394;5.734;2023-09-12T13:44:29;5.57;;;3.72;;
55288;SDS011;41154;45.394;5.734;2023-09-12T13:46:55;5.00;;;3.60;;
55288;SDS011;41154;45.394;5.734;2023-09-12T13:49:21;6.90;;;4.00;;
55288;SDS011;41154;45.394;5.734;2023-09-12T13:51:47;3.88;;;3.42;;
55288;SDS011;41154;45.394;5.734;2023-09-12T13:54:12;7.30;;;3.85;;
55288;SDS011;41154;45.394;5.734;2023-09-12T13:56:40;6.10;;;3.20;;
55288;SDS011;41154;45.394;5.734;2023-09-12T13:59:06;5.18;;;4.05;;
55288;SDS011;41154;45.394;5.734;2023-09-12T14:01:32;7.78;;;3.85;;
55288;SDS011;41154;45.394;5.734;2023-09-12T14:03:59;4.43;;;3.80;;
55288;SDS011;41154;45.394;5.734;2023-09-12T14:06:25;4.50;;;3.85;;
55288;SDS011;41154;45.394;5.734;2023-09-12T14:08:51;5.88;;;3.53;;
55288;SDS011;41154;45.394;5.734;2023-09-12T14:11:17;5.93;;;3.85;;
55288;SDS011;41154;45.394;5.734;2023-09-12T14:13:43;5.78;;;4.10;;
55288;SDS011;41154;45.394;5.734;2023-09-12T14:16:09;4.47;;;3.70;;
55288;SDS011;41154;45.394;5.734;2023-09-12T14:18:34;4.20;;;3.60;;
55288;SDS011;41154;45.394;5.734;2023-09-12T14:21:00;5.97;;;3.80;;
55288;SDS011;41154;45.394;5.734;2023-09-12T14:23:26;8.23;;;4.22;;
55288;SDS011;41154;45.394;5.734;2023-09-12T14:25:52;6.60;;;3.90;;
55288;SDS011;41154;45.394;5.734;2023-09-12T14:28:36;5.00;;;3.90;;
55288;SDS011;41154;45.394;5.734;2023-09-12T14:31:02;4.82;;;4.10;;
55288;SDS011;41154;45.394;5.734;2023-09-12T14:33:29;7.53;;;4.20;;
55288;SDS011;41154;45.394;5.734;2023-09-12T14:35:55;4.93;;;3.85;;
55288;SDS011;41154;45.394;5.734;2023-09-12T14:38:20;6.30;;;4.03;;
55288;SDS011;41154;45.394;5.734;2023-09-12T14:40:46;7.10;;;4.10;;
55288;SDS011;41154;45.394;5.734;2023-09-12T14:43:12;5.22;;;4.43;;
55288;SDS011;41154;45.394;5.734;2023-09-12T14:45:38;5.95;;;3.92;;
55288;SDS011;41154;45.394;5.734;2023-09-12T14:48:04;4.60;;;4.00;;
55288;SDS011;41154;45.394;5.734;2023-09-12T14:50:30;8.30;;;4.18;;
55288;SDS011;41154;45.394;5.734;2023-09-12T14:52:56;6.18;;;4.43;;
55288;SDS011;41154;45.394;5.734;2023-09-12T14:55:22;5.03;;;4.00;;
55288;SDS011;41154;45.394;5.734;2023-09-12T14:57:48;4.80;;;4.13;;
55288;SDS011;41154;45.394;5.734;2023-09-12T15:00:14;5.43;;;3.90;;
55288;SDS011;41154;45.394;5.734;2023-09-12T15:02:40;7.25;;;4.15;;
55288;SDS011;41154;45.394;5.734;2023-09-12T15:05:07;6.82;;;3.92;;
55288;SDS011;41154;45.394;5.734;2023-09-12T15:07:33;5.45;;;3.80;;
55288;SDS011;41154;45.394;5.734;2023-09-12T15:10:00;6.68;;;4.20;;
55288;SDS011;41154;45.394;5.734;2023-09-12T15:12:26;7.57;;;4.57;;